mercredi 12 février 2014

ALERTE SPOTTING 12/02/14

142 D-AMGL WDL
  dpt AF8218 12h00   

73G EI-RUL Transaero
  UN555/UN556  12h15/1345

73W OO-JAN Jetairfly
  JAF3943/JAF3944   13h35/14h25

 Manque les prévisions/immats Air Europa / Flybe / AZ / TAP / BA / certains Air Algérie
*** Heures en Local Time / prévisions soumises
 à modifications de dernières minutes ***

le TAF de la journée




METAR: LFPO 120330Z 22006KT CAVOK 02/01 Q1010 NOSIG=
TAF LONG: LFPO 112300Z 1200/1306 21010KT 9999 BKN025 PROB30 TEMPO 1200/1208
BKN008 BECMG 1212/1214 20015G25KT TEMPO 1215/1224 20020G35KT TEMPO
1218/1224 4000 RA BKN008 PROB30 TEMPO 1300/1306 3000 BR BKN006=   
 Les logs des jours précédents :
 http://www.airkalo.com/ORLYAVIATION/Logdumois.html